createdAt,value
2019-01-14T00:00:44.778Z,86.90
2019-01-14T00:03:14.175Z,87.70
2019-01-14T00:05:43.600Z,87.80
2019-01-14T00:08:13.373Z,87.80
2019-01-14T00:10:42.842Z,87.50
2019-01-14T00:13:12.361Z,87.10
2019-01-14T00:15:43.148Z,86.40
2019-01-14T00:18:12.620Z,86.00
2019-01-14T00:20:42.160Z,85.70
2019-01-14T00:23:11.643Z,85.50
2019-01-14T00:25:41.112Z,85.40
2019-01-14T00:28:10.506Z,85.50
2019-01-14T00:30:39.972Z,85.20
2019-01-14T00:33:10.527Z,84.80
2019-01-14T00:35:39.952Z,84.70
2019-01-14T00:38:09.866Z,84.80
2019-01-14T00:40:39.341Z,85.10
2019-01-14T00:43:08.745Z,84.80
2019-01-14T00:45:38.202Z,84.30
2019-01-14T00:48:07.661Z,84.30
2019-01-14T00:50:37.070Z,84.30
2019-01-14T00:53:06.575Z,84.60
2019-01-14T00:55:35.910Z,84.30
2019-01-14T00:58:05.370Z,84.60
2019-01-14T01:00:35.103Z,84.90
2019-01-14T01:03:05.744Z,84.70
2019-01-14T01:05:35.159Z,84.90
2019-01-14T01:08:05.264Z,85.20
2019-01-14T01:10:35.065Z,85.50
2019-01-14T01:13:05.263Z,85.60
2019-01-14T01:15:37.319Z,85.60
2019-01-14T01:18:06.803Z,85.90
2019-01-14T01:20:36.559Z,85.50
2019-01-14T01:23:06.056Z,85.30
2019-01-14T01:25:35.481Z,85.30
2019-01-14T01:28:04.891Z,85.50
2019-01-14T01:30:35.011Z,86.20
2019-01-14T01:33:05.355Z,86.30
2019-01-14T01:35:35.150Z,86.00
2019-01-14T01:38:05.070Z,85.90
2019-01-14T01:40:34.496Z,85.40
2019-01-14T01:43:03.990Z,85.30
2019-01-14T01:45:33.404Z,84.70
2019-01-14T01:48:02.933Z,84.70
2019-01-14T01:50:32.891Z,84.60
2019-01-14T01:53:02.840Z,84.30
2019-01-14T01:55:36.607Z,84.00
2019-01-14T01:58:06.384Z,84.20
2019-01-14T02:00:35.902Z,83.80
2019-01-14T02:03:05.599Z,84.00
2019-01-14T02:05:35.165Z,84.10
2019-01-14T02:08:04.644Z,84.40
2019-01-14T02:10:34.017Z,84.30
2019-01-14T02:13:03.563Z,84.50
2019-01-14T02:15:32.896Z,84.30
2019-01-14T02:18:02.569Z,84.50
2019-01-14T02:20:31.910Z,84.40
2019-01-14T02:23:01.412Z,84.50
2019-01-14T02:25:31.365Z,84.50
2019-01-14T02:28:01.080Z,84.50
2019-01-14T02:30:30.491Z,84.70
2019-01-14T02:33:00.662Z,84.60
2019-01-14T02:35:30.282Z,85.20
2019-01-14T02:37:59.644Z,85.10
2019-01-14T02:40:29.156Z,85.00
2019-01-14T02:42:58.592Z,85.20
2019-01-14T02:45:28.209Z,85.20
2019-01-14T02:47:57.573Z,84.90
2019-01-14T02:50:27.383Z,84.20
2019-01-14T02:52:56.807Z,84.10
2019-01-14T02:55:26.228Z,84.50
2019-01-14T02:57:56.240Z,84.30
2019-01-14T03:00:26.612Z,84.20
2019-01-14T03:02:56.128Z,83.70
2019-01-14T03:05:25.458Z,83.60
2019-01-14T03:07:54.793Z,83.50
2019-01-14T03:10:24.260Z,83.60
2019-01-14T03:12:53.733Z,83.80
2019-01-14T03:15:23.710Z,84.00
2019-01-14T03:17:53.837Z,84.30
2019-01-14T03:20:23.426Z,84.30
2019-01-14T03:22:53.267Z,84.10
2019-01-14T03:25:22.620Z,84.50
2019-01-14T03:27:52.083Z,85.70
2019-01-14T03:30:21.584Z,85.20
2019-01-14T03:32:51.013Z,85.20
2019-01-14T03:35:20.623Z,85.00
2019-01-14T03:37:50.118Z,85.20
2019-01-14T03:40:19.742Z,85.40
2019-01-14T03:42:50.805Z,85.40
2019-01-14T03:45:20.424Z,85.20
2019-01-14T03:47:50.343Z,85.60
2019-01-14T03:50:21.444Z,85.40
2019-01-14T03:52:51.395Z,85.40
2019-01-14T03:55:20.798Z,85.00
2019-01-14T03:57:52.447Z,85.10
2019-01-14T04:00:22.260Z,85.40
2019-01-14T04:02:52.094Z,85.70
2019-01-14T04:05:21.535Z,86.20
2019-01-14T04:07:51.070Z,86.30
2019-01-14T04:10:20.488Z,86.40
2019-01-14T04:12:49.983Z,86.10
2019-01-14T04:15:19.973Z,86.10
2019-01-14T04:17:49.517Z,86.10
2019-01-14T04:20:19.832Z,86.10
2019-01-14T04:22:49.609Z,86.00
2019-01-14T04:25:19.750Z,86.40
2019-01-14T04:27:49.184Z,86.00
2019-01-14T04:30:20.778Z,85.90
2019-01-14T04:32:50.469Z,86.10
2019-01-14T04:35:20.858Z,85.50
2019-01-14T04:37:50.438Z,85.50
2019-01-14T04:40:19.852Z,85.10
2019-01-14T04:42:49.619Z,85.40
2019-01-14T04:45:19.410Z,85.70
2019-01-14T04:47:49.295Z,85.90
2019-01-14T04:50:20.806Z,85.70
2019-01-14T04:52:51.435Z,85.60
2019-01-14T04:55:20.937Z,86.10
2019-01-14T04:57:50.494Z,86.10
2019-01-14T05:00:22.472Z,86.60
2019-01-14T05:02:51.964Z,86.60
2019-01-14T05:05:21.622Z,86.70
2019-01-14T05:07:51.126Z,86.40
2019-01-14T05:10:21.295Z,86.60
2019-01-14T05:12:50.731Z,86.40
2019-01-14T05:15:20.351Z,86.60
2019-01-14T05:17:49.686Z,86.70
2019-01-14T05:20:24.210Z,86.70
2019-01-14T05:22:54.956Z,87.50
2019-01-14T05:25:24.511Z,86.80
2019-01-14T05:27:53.870Z,87.10
2019-01-14T05:30:23.408Z,86.50
2019-01-14T05:32:52.877Z,86.50
2019-01-14T05:35:23.574Z,86.30
2019-01-14T05:37:54.219Z,86.10
2019-01-14T05:40:25.336Z,85.80
2019-01-14T05:42:54.770Z,85.80
2019-01-14T05:45:24.260Z,85.40
2019-01-14T05:47:53.660Z,85.30
2019-01-14T05:50:23.291Z,85.60
2019-01-14T05:52:52.630Z,85.50
2019-01-14T05:55:22.052Z,85.50
2019-01-14T05:57:51.404Z,85.50
2019-01-14T06:00:28.246Z,85.50
2019-01-14T06:02:58.204Z,85.70
2019-01-14T06:05:27.526Z,85.40
2019-01-14T06:07:57.034Z,86.00
2019-01-14T06:10:26.400Z,86.20
2019-01-14T06:12:56.442Z,86.10
2019-01-14T06:15:26.378Z,86.10
2019-01-14T06:17:55.728Z,86.10
2019-01-14T06:20:29.750Z,86.40
2019-01-14T06:22:59.178Z,86.40
2019-01-14T06:25:28.700Z,86.60
2019-01-14T06:27:58.651Z,86.60
2019-01-14T06:30:29.943Z,86.60
2019-01-14T06:32:59.908Z,86.90
2019-01-14T06:35:30.495Z,87.00
2019-01-14T06:38:00.059Z,87.20
2019-01-14T06:40:29.550Z,87.20
2019-01-14T06:42:58.979Z,87.30
2019-01-14T06:45:28.313Z,87.10
2019-01-14T06:47:57.882Z,87.10
2019-01-14T06:50:27.375Z,87.00
2019-01-14T06:52:57.963Z,87.20
2019-01-14T06:55:27.373Z,87.30
2019-01-14T06:57:57.364Z,86.80
2019-01-14T07:00:27.388Z,87.10
2019-01-14T07:02:57.234Z,87.30
2019-01-14T07:05:27.279Z,87.40
2019-01-14T07:07:59.900Z,87.40
2019-01-14T07:10:28.997Z,87.50
2019-01-14T07:12:58.460Z,88.40
2019-01-14T07:15:28.091Z,88.20
2019-01-14T07:17:58.402Z,88.50
2019-01-14T07:20:27.795Z,88.40
2019-01-14T07:22:57.726Z,88.10
2019-01-14T07:25:27.235Z,88.20
2019-01-14T07:27:56.577Z,88.20
2019-01-14T07:30:26.611Z,88.30
2019-01-14T07:32:56.847Z,88.30
2019-01-14T07:35:26.722Z,88.70
2019-01-14T07:37:56.463Z,88.90
2019-01-14T07:40:25.883Z,88.90
2019-01-14T07:42:55.211Z,88.50
2019-01-14T07:45:24.798Z,88.50
2019-01-14T07:47:54.165Z,88.00
2019-01-14T07:50:23.635Z,87.60
2019-01-14T07:52:53.419Z,87.50
2019-01-14T07:55:22.944Z,87.60
2019-01-14T07:57:52.371Z,87.60
2019-01-14T08:00:24.018Z,87.60
2019-01-14T08:02:53.444Z,87.40
2019-01-14T08:05:22.983Z,87.50
2019-01-14T08:07:52.459Z,87.50
2019-01-14T08:10:21.888Z,87.70
2019-01-14T08:12:51.638Z,87.70
2019-01-14T08:15:21.683Z,88.00
2019-01-14T08:17:51.263Z,88.00
2019-01-14T08:20:20.841Z,88.30
2019-01-14T08:22:50.309Z,88.50
2019-01-14T08:25:19.739Z,88.20
2019-01-14T08:27:49.214Z,88.40
2019-01-14T08:30:20.714Z,88.10
2019-01-14T08:32:51.062Z,88.60
2019-01-14T08:35:20.699Z,88.10
2019-01-14T08:37:50.110Z,87.90
2019-01-14T08:40:19.693Z,88.50
2019-01-14T08:42:49.328Z,87.70
2019-01-14T08:45:18.727Z,87.70
2019-01-14T08:47:48.147Z,87.30
2019-01-14T08:50:19.049Z,86.50
2019-01-14T08:52:48.481Z,86.10
2019-01-14T08:55:18.060Z,85.70
2019-01-14T08:57:54.249Z,85.30
2019-01-14T09:00:19.929Z,85.10
2019-01-14T09:02:49.355Z,85.20
2019-01-14T09:05:19.722Z,85.50
2019-01-14T09:07:49.139Z,85.60
2019-01-14T09:10:21.459Z,85.70
2019-01-14T09:12:50.812Z,85.90
2019-01-14T09:15:20.299Z,86.00
2019-01-14T09:17:49.932Z,85.90
2019-01-14T09:20:22.799Z,86.30
2019-01-14T09:22:52.450Z,86.40
2019-01-14T09:25:21.851Z,85.90
2019-01-14T09:27:52.413Z,85.70
2019-01-14T09:30:23.410Z,85.60
2019-01-14T09:32:53.511Z,85.30
2019-01-14T09:35:23.322Z,84.60
2019-01-14T09:37:53.174Z,84.60
2019-01-14T09:40:23.769Z,84.10
2019-01-14T09:42:53.262Z,83.60
2019-01-14T09:45:22.719Z,83.80
2019-01-14T09:47:52.247Z,83.20
2019-01-14T09:50:21.693Z,83.10
2019-01-14T09:52:51.145Z,83.00
2019-01-14T09:55:20.953Z,82.60
2019-01-14T09:57:50.861Z,82.50
2019-01-14T10:00:20.363Z,82.20
2019-01-14T10:02:49.758Z,81.70
2019-01-14T10:05:20.045Z,81.50
2019-01-14T10:07:49.819Z,81.70
2019-01-14T10:10:19.453Z,81.90
2019-01-14T10:12:50.072Z,81.00
2019-01-14T10:15:21.460Z,80.60
2019-01-14T10:17:52.591Z,80.10
2019-01-14T10:20:21.931Z,79.20
2019-01-14T10:22:51.723Z,79.20
2019-01-14T10:25:22.653Z,79.00
2019-01-14T10:27:51.983Z,78.90
2019-01-14T10:30:21.692Z,79.10
2019-01-14T10:32:51.836Z,78.60
2019-01-14T10:35:21.238Z,79.30
2019-01-14T10:37:50.574Z,79.30
2019-01-14T10:40:20.003Z,78.80
2019-01-14T10:42:49.399Z,75.30
2019-01-14T10:45:23.184Z,73.00
2019-01-14T10:47:53.803Z,69.70
2019-01-14T10:50:23.359Z,64.90
2019-01-14T10:52:52.846Z,60.70
2019-01-14T10:55:22.356Z,59.20
2019-01-14T10:57:51.830Z,57.50
2019-01-14T11:00:24.005Z,56.00
2019-01-14T11:02:53.708Z,54.60
2019-01-14T11:05:26.033Z,53.40
2019-01-14T11:07:55.565Z,54.00
2019-01-14T11:10:25.065Z,55.00
2019-01-14T11:12:54.468Z,56.00
2019-01-14T11:15:23.942Z,54.90
2019-01-14T11:17:53.390Z,53.40
2019-01-14T11:20:30.121Z,52.70
2019-01-14T11:23:00.064Z,53.80
2019-01-14T11:25:30.171Z,55.40
2019-01-14T11:28:00.106Z,56.20
2019-01-14T11:30:30.499Z,56.50
2019-01-14T11:32:59.993Z,56.80
2019-01-14T11:35:29.526Z,56.50
2019-01-14T11:37:59.103Z,53.90
2019-01-14T11:40:31.751Z,50.70
2019-01-14T11:43:01.274Z,49.30
2019-01-14T11:45:30.866Z,45.50
2019-01-14T11:48:01.377Z,45.00
2019-01-14T11:50:30.748Z,44.00
2019-01-14T11:53:00.180Z,44.60
2019-01-14T11:55:29.699Z,43.80
2019-01-14T11:57:59.063Z,41.70
2019-01-14T12:00:28.674Z,43.30
2019-01-14T12:02:58.217Z,42.70
2019-01-14T12:05:27.732Z,40.70
2019-01-14T12:07:57.100Z,39.30
2019-01-14T12:10:26.850Z,39.10
2019-01-14T12:12:56.276Z,38.20
2019-01-14T12:15:26.796Z,39.20
2019-01-14T12:17:56.391Z,41.60
2019-01-14T12:20:25.955Z,41.20
2019-01-14T12:22:55.456Z,42.90
2019-01-14T12:25:24.895Z,43.30
2019-01-14T12:27:54.300Z,43.00
2019-01-14T12:30:29.642Z,43.90
2019-01-14T12:33:00.555Z,44.60
2019-01-14T12:35:30.374Z,46.70
2019-01-14T12:37:59.911Z,47.30
2019-01-14T12:40:29.331Z,47.90
2019-01-14T12:42:59.185Z,49.60
2019-01-14T12:45:28.736Z,49.50
2019-01-14T12:47:58.236Z,51.30
2019-01-14T12:50:27.674Z,53.00
2019-01-14T12:52:57.361Z,51.80
2019-01-14T12:55:26.850Z,48.50
2019-01-14T12:57:56.218Z,46.90
2019-01-14T13:00:28.108Z,45.80
2019-01-14T13:02:58.691Z,45.90
2019-01-14T13:05:29.506Z,48.50
2019-01-14T13:08:00.005Z,50.80
2019-01-14T13:10:29.596Z,53.70
2019-01-14T13:12:59.031Z,55.70
2019-01-14T13:15:28.706Z,57.00
2019-01-14T13:17:58.198Z,59.00
2019-01-14T13:20:27.799Z,60.10
2019-01-14T13:22:57.331Z,57.80
2019-01-14T13:25:27.068Z,57.50
2019-01-14T13:27:56.907Z,58.00
2019-01-14T13:30:28.523Z,57.90
2019-01-14T13:32:59.588Z,53.10
2019-01-14T13:35:29.543Z,50.30
2019-01-14T13:38:00.147Z,48.60
2019-01-14T13:40:30.197Z,50.00
2019-01-14T13:42:59.774Z,52.20
2019-01-14T13:45:29.837Z,53.30
2019-01-14T13:48:00.056Z,56.10
2019-01-14T13:50:29.766Z,57.80
2019-01-14T13:52:59.550Z,59.40
2019-01-14T13:55:29.075Z,60.10
2019-01-14T13:58:00.127Z,62.80
2019-01-14T14:00:29.763Z,63.90
2019-01-14T14:02:59.124Z,64.40
2019-01-14T14:05:28.679Z,65.00
2019-01-14T14:07:58.554Z,64.10
2019-01-14T14:10:29.326Z,64.90
2019-01-14T14:14:57.296Z,64.00
2019-01-14T14:17:26.654Z,65.50
2019-01-14T14:19:55.990Z,66.00
2019-01-14T14:22:25.444Z,66.00
2019-01-14T14:24:54.943Z,65.70
2019-01-14T14:27:24.304Z,65.10
2019-01-14T14:29:53.829Z,65.40
2019-01-14T14:32:23.198Z,65.40
2019-01-14T14:34:52.539Z,66.10
2019-01-14T14:37:22.040Z,66.90
2019-01-14T14:39:51.476Z,68.00
2019-01-14T14:42:20.865Z,68.00
2019-01-14T14:44:50.312Z,68.50
2019-01-14T14:47:19.743Z,68.80
2019-01-14T14:49:49.122Z,69.80
2019-01-14T14:52:18.631Z,70.10
2019-01-14T14:54:48.139Z,71.90
2019-01-14T14:57:18.767Z,72.90
2019-01-14T14:59:48.126Z,74.30
2019-01-14T15:02:17.479Z,75.50
2019-01-14T15:04:46.882Z,76.70
2019-01-14T15:07:16.227Z,77.50
2019-01-14T15:09:46.109Z,78.00
2019-01-14T15:12:15.474Z,79.00
2019-01-14T15:14:44.822Z,78.80
2019-01-14T15:17:14.176Z,78.90
2019-01-14T15:19:43.570Z,79.40
2019-01-14T15:22:12.928Z,78.80
2019-01-14T15:24:42.446Z,79.00
2019-01-14T15:27:11.800Z,78.30
2019-01-14T15:29:41.412Z,78.90
2019-01-14T15:32:11.018Z,78.30
2019-01-14T15:34:40.828Z,77.40
2019-01-14T15:37:10.287Z,77.80
2019-01-14T15:39:39.721Z,77.70
2019-01-14T15:42:09.164Z,77.50
2019-01-14T15:44:38.579Z,77.50
2019-01-14T15:47:08.090Z,78.10
2019-01-14T15:49:37.492Z,77.80
2019-01-14T15:52:06.915Z,78.00
2019-01-14T15:54:36.531Z,78.40
2019-01-14T15:57:05.942Z,78.00
2019-01-14T15:59:35.527Z,77.60
2019-01-14T16:02:05.842Z,77.90
2019-01-14T16:04:35.311Z,77.40
2019-01-14T16:07:04.830Z,77.70
2019-01-14T16:09:34.250Z,77.60
2019-01-14T16:12:03.584Z,77.70
2019-01-14T16:14:33.224Z,77.80
2019-01-14T16:17:02.583Z,77.80
2019-01-14T16:19:31.922Z,78.20
2019-01-14T16:22:01.419Z,78.70
2019-01-14T16:24:30.877Z,78.60
2019-01-14T16:27:00.214Z,79.80
2019-01-14T16:29:29.559Z,79.20
2019-01-14T16:31:59.066Z,80.70
2019-01-14T16:34:29.175Z,82.70
2019-01-14T16:36:58.658Z,83.00
2019-01-14T16:39:28.160Z,82.60
2019-01-14T16:41:58.463Z,82.40
2019-01-14T16:44:28.149Z,82.50
2019-01-14T16:46:57.536Z,82.70
2019-01-14T16:49:26.886Z,82.40
2019-01-14T16:51:56.338Z,82.80
2019-01-14T16:54:25.695Z,82.40
2019-01-14T16:56:55.104Z,82.60
2019-01-14T16:59:24.532Z,83.10
2019-01-14T17:01:53.979Z,82.10
2019-01-14T17:04:23.387Z,82.60
2019-01-14T17:06:52.751Z,81.50
2019-01-14T17:09:22.259Z,81.20
2019-01-14T17:11:51.684Z,81.30
2019-01-14T17:14:21.099Z,81.50
2019-01-14T17:16:50.472Z,80.70
2019-01-14T17:19:19.876Z,80.80
2019-01-14T17:21:49.309Z,81.00
2019-01-14T17:24:18.722Z,81.00
2019-01-14T17:26:48.663Z,80.40
2019-01-14T17:29:18.360Z,80.70
2019-01-14T17:31:49.999Z,80.10
2019-01-14T17:34:19.334Z,80.20
2019-01-14T17:36:48.780Z,80.20
2019-01-14T17:39:18.265Z,79.90
2019-01-14T17:41:48.839Z,80.10
2019-01-14T17:44:18.279Z,79.10
2019-01-14T17:46:47.823Z,79.10
2019-01-14T17:49:17.687Z,79.00
2019-01-14T17:51:47.569Z,79.10
2019-01-14T17:54:16.994Z,79.10
2019-01-14T17:56:46.369Z,79.30
2019-01-14T17:59:16.422Z,80.10
2019-01-14T18:01:45.830Z,79.20
2019-01-14T18:04:15.255Z,78.90
2019-01-14T18:06:44.801Z,78.60
2019-01-14T18:09:14.611Z,78.60
2019-01-14T18:11:44.291Z,79.40
2019-01-14T18:14:13.660Z,79.60
2019-01-14T18:16:43.018Z,79.90
2019-01-14T18:19:12.970Z,79.80
2019-01-14T18:21:43.114Z,79.80
2019-01-14T18:24:12.835Z,80.20
2019-01-14T18:26:42.259Z,80.60
2019-01-14T18:29:11.856Z,80.00
2019-01-14T18:31:41.435Z,80.50
2019-01-14T18:34:10.813Z,80.00
2019-01-14T18:36:40.307Z,79.60
2019-01-14T18:39:10.110Z,79.80
2019-01-14T18:41:40.042Z,79.00
2019-01-14T18:44:09.586Z,79.60
2019-01-14T18:46:38.996Z,79.20
2019-01-14T18:49:09.549Z,79.80
2019-01-14T18:51:38.977Z,79.60
2019-01-14T18:54:08.489Z,79.30
2019-01-14T18:56:37.835Z,79.50
2019-01-14T18:59:07.335Z,80.20
2019-01-14T19:01:36.676Z,80.10
2019-01-14T19:04:06.628Z,80.70
2019-01-14T19:06:36.493Z,80.70
2019-01-14T19:09:08.504Z,80.90
2019-01-14T19:11:37.904Z,80.90
2019-01-14T19:14:07.389Z,81.20
2019-01-14T19:16:36.788Z,82.20
2019-01-14T19:19:06.839Z,82.50
2019-01-14T19:21:36.521Z,82.00
2019-01-14T19:24:05.924Z,82.70
2019-01-14T19:26:35.365Z,83.10
2019-01-14T19:29:05.483Z,83.40
2019-01-14T19:31:34.879Z,83.40
2019-01-14T19:34:05.379Z,82.20
2019-01-14T19:36:34.883Z,82.10
2019-01-14T19:39:08.223Z,81.90
2019-01-14T19:41:37.741Z,81.60
2019-01-14T19:44:07.279Z,81.40
2019-01-14T19:46:37.079Z,82.20
2019-01-14T19:49:06.457Z,81.70
2019-01-14T19:51:35.878Z,81.80
2019-01-14T19:54:05.477Z,82.30
2019-01-14T19:56:34.942Z,82.30
2019-01-14T19:59:04.647Z,81.90
2019-01-14T20:01:34.082Z,82.30
2019-01-14T20:04:03.742Z,84.30
2019-01-14T20:06:33.208Z,83.60
2019-01-14T20:09:03.913Z,83.80
2019-01-14T20:11:33.425Z,83.80
2019-01-14T20:14:02.834Z,83.90
2019-01-14T20:16:32.308Z,84.70
2019-01-14T20:19:01.907Z,85.20
2019-01-14T20:21:32.096Z,84.50
2019-01-14T20:24:02.009Z,83.80
2019-01-14T20:26:31.573Z,83.80
2019-01-14T20:29:01.224Z,84.40
2019-01-14T20:31:31.018Z,84.40
2019-01-14T20:34:01.227Z,84.70
2019-01-14T20:36:30.558Z,84.20
2019-01-14T20:38:59.915Z,85.00
2019-01-14T20:41:29.343Z,84.30
2019-01-14T20:44:05.050Z,84.30
2019-01-14T20:46:29.823Z,84.30
2019-01-14T20:48:59.480Z,84.60
2019-01-14T20:51:28.837Z,83.70
2019-01-14T20:53:58.353Z,84.20
2019-01-14T20:56:27.722Z,83.60
2019-01-14T20:58:57.197Z,84.00
2019-01-14T21:01:26.688Z,84.10
2019-01-14T21:03:56.075Z,84.10
2019-01-14T21:06:25.478Z,84.00
2019-01-14T21:08:54.833Z,84.50
2019-01-14T21:11:24.272Z,84.80
2019-01-14T21:13:53.634Z,84.40
2019-01-14T21:16:23.213Z,84.30
2019-01-14T21:18:53.355Z,85.10
2019-01-14T21:21:23.826Z,85.20
2019-01-14T21:23:53.254Z,85.90
2019-01-14T21:26:22.955Z,86.10
2019-01-14T21:28:52.286Z,86.30
2019-01-14T21:31:21.702Z,87.00
2019-01-14T21:33:51.367Z,87.50
2019-01-14T21:36:20.715Z,87.80
2019-01-14T21:38:50.449Z,87.80
2019-01-14T21:41:19.885Z,87.80
2019-01-14T21:43:49.230Z,87.80
2019-01-14T21:46:18.722Z,87.90
2019-01-14T21:48:48.172Z,87.70
2019-01-14T21:51:17.590Z,87.80
2019-01-14T21:53:47.482Z,87.90
2019-01-14T21:56:16.868Z,87.70
2019-01-14T21:58:46.226Z,87.60
2019-01-14T22:01:15.685Z,87.20
2019-01-14T22:03:45.206Z,87.00
2019-01-14T22:06:14.531Z,86.80
2019-01-14T22:08:43.859Z,86.20
2019-01-14T22:11:13.346Z,85.80
2019-01-14T22:13:42.721Z,85.90
2019-01-14T22:16:12.064Z,85.10
2019-01-14T22:18:41.429Z,84.70
2019-01-14T22:21:11.879Z,84.60
2019-01-14T22:23:41.288Z,84.20
2019-01-14T22:26:11.139Z,84.00
2019-01-14T22:28:41.067Z,84.00
2019-01-14T22:31:10.423Z,83.50
2019-01-14T22:33:39.843Z,83.50
2019-01-14T22:36:09.266Z,83.50
2019-01-14T22:38:38.751Z,83.40
2019-01-14T22:41:08.703Z,83.50
2019-01-14T22:43:38.103Z,83.50
2019-01-14T22:46:07.458Z,83.10
2019-01-14T22:48:37.143Z,82.90
2019-01-14T22:51:07.051Z,82.70
2019-01-14T22:53:36.972Z,82.60
2019-01-14T22:56:07.421Z,83.00
2019-01-14T22:58:36.819Z,83.30
2019-01-14T23:01:14.676Z,83.40
2019-01-14T23:03:44.076Z,83.70
2019-01-14T23:06:13.495Z,83.70
2019-01-14T23:08:44.591Z,84.30
2019-01-14T23:11:14.483Z,85.00
2019-01-14T23:13:44.943Z,85.90
2019-01-14T23:16:15.812Z,86.80
2019-01-14T23:18:45.142Z,87.50
2019-01-14T23:21:14.693Z,88.40
2019-01-14T23:23:44.083Z,88.60
2019-01-14T23:26:13.414Z,89.20
2019-01-14T23:28:42.820Z,89.30
2019-01-14T23:31:12.167Z,89.40
2019-01-14T23:33:41.567Z,89.10
2019-01-14T23:36:10.954Z,89.10
2019-01-14T23:38:40.362Z,89.20
2019-01-14T23:41:09.831Z,89.10
2019-01-14T23:43:39.200Z,89.10
2019-01-14T23:46:08.571Z,89.10
2019-01-14T23:48:37.928Z,89.10
2019-01-14T23:51:07.363Z,88.90
2019-01-14T23:53:36.877Z,88.90
2019-01-14T23:56:06.284Z,88.90
2019-01-14T23:58:35.703Z,88.90
